sensor_id;sensor_type;location;lat;lon;timestamp;P1;durP1;ratioP1;P2;durP2;ratioP2
20421;SDS011;10370;53.102;18.034;2023-06-04T00:02:49;31.15;;;8.63;;
20421;SDS011;10370;53.102;18.034;2023-06-04T00:08:12;28.13;;;7.10;;
20421;SDS011;10370;53.102;18.034;2023-06-04T00:13:35;19.52;;;7.50;;
20421;SDS011;10370;53.102;18.034;2023-06-04T00:19:01;31.35;;;9.38;;
20421;SDS011;10370;53.102;18.034;2023-06-04T00:24:27;22.27;;;8.18;;
20421;SDS011;10370;53.102;18.034;2023-06-04T00:29:50;23.55;;;8.25;;
20421;SDS011;10370;53.102;18.034;2023-06-04T00:35:14;20.27;;;8.10;;
20421;SDS011;10370;53.102;18.034;2023-06-04T00:40:38;18.05;;;7.55;;
20421;SDS011;10370;53.102;18.034;2023-06-04T00:46:02;18.27;;;7.20;;
20421;SDS011;10370;53.102;18.034;2023-06-04T00:51:39;20.38;;;8.25;;
20421;SDS011;10370;53.102;18.034;2023-06-04T00:57:08;16.90;;;7.53;;
20421;SDS011;10370;53.102;18.034;2023-06-04T01:02:35;19.97;;;6.73;;
20421;SDS011;10370;53.102;18.034;2023-06-04T01:08:26;17.17;;;6.40;;
20421;SDS011;10370;53.102;18.034;2023-06-04T01:14:04;16.20;;;5.20;;
20421;SDS011;10370;53.102;18.034;2023-06-04T01:25:33;16.27;;;4.77;;
20421;SDS011;10370;53.102;18.034;2023-06-04T01:31:12;16.33;;;4.40;;
20421;SDS011;10370;53.102;18.034;2023-06-04T01:36:39;15.97;;;4.60;;
20421;SDS011;10370;53.102;18.034;2023-06-04T01:42:02;14.43;;;5.80;;
20421;SDS011;10370;53.102;18.034;2023-06-04T01:47:25;21.30;;;5.40;;
20421;SDS011;10370;53.102;18.034;2023-06-04T01:52:49;13.70;;;5.70;;
20421;SDS011;10370;53.102;18.034;2023-06-04T01:58:13;25.43;;;6.23;;
20421;SDS011;10370;53.102;18.034;2023-06-04T02:03:41;12.17;;;5.27;;
20421;SDS011;10370;53.102;18.034;2023-06-04T02:09:05;14.17;;;5.40;;
20421;SDS011;10370;53.102;18.034;2023-06-04T02:14:38;31.37;;;6.43;;
20421;SDS011;10370;53.102;18.034;2023-06-04T02:20:04;16.20;;;5.67;;
20421;SDS011;10370;53.102;18.034;2023-06-04T02:25:44;24.80;;;5.97;;
20421;SDS011;10370;53.102;18.034;2023-06-04T02:31:07;17.87;;;5.50;;
20421;SDS011;10370;53.102;18.034;2023-06-04T02:36:39;21.37;;;4.90;;
20421;SDS011;10370;53.102;18.034;2023-06-04T02:42:11;14.63;;;4.80;;
20421;SDS011;10370;53.102;18.034;2023-06-04T02:47:37;14.60;;;4.90;;
20421;SDS011;10370;53.102;18.034;2023-06-04T02:53:22;16.77;;;5.07;;
20421;SDS011;10370;53.102;18.034;2023-06-04T02:58:52;17.50;;;5.33;;
20421;SDS011;10370;53.102;18.034;2023-06-04T03:04:19;21.47;;;7.47;;
20421;SDS011;10370;53.102;18.034;2023-06-04T03:09:48;15.97;;;6.03;;
20421;SDS011;10370;53.102;18.034;2023-06-04T03:15:13;18.67;;;5.43;;
20421;SDS011;10370;53.102;18.034;2023-06-04T03:20:49;14.40;;;4.50;;
20421;SDS011;10370;53.102;18.034;2023-06-04T03:26:13;19.40;;;5.37;;
20421;SDS011;10370;53.102;18.034;2023-06-04T03:31:50;14.23;;;5.03;;
20421;SDS011;10370;53.102;18.034;2023-06-04T03:37:13;13.30;;;5.00;;
20421;SDS011;10370;53.102;18.034;2023-06-04T03:42:35;14.20;;;4.43;;
20421;SDS011;10370;53.102;18.034;2023-06-04T03:47:58;9.30;;;4.70;;
20421;SDS011;10370;53.102;18.034;2023-06-04T03:53:21;10.33;;;4.37;;
20421;SDS011;10370;53.102;18.034;2023-06-04T03:58:46;11.02;;;4.22;;
20421;SDS011;10370;53.102;18.034;2023-06-04T04:04:09;7.93;;;4.40;;
20421;SDS011;10370;53.102;18.034;2023-06-04T04:09:32;9.02;;;4.47;;
20421;SDS011;10370;53.102;18.034;2023-06-04T04:14:56;8.40;;;4.45;;
20421;SDS011;10370;53.102;18.034;2023-06-04T04:20:18;13.60;;;4.60;;
20421;SDS011;10370;53.102;18.034;2023-06-04T04:25:41;12.90;;;5.18;;
20421;SDS011;10370;53.102;18.034;2023-06-04T04:31:05;10.27;;;4.95;;
20421;SDS011;10370;53.102;18.034;2023-06-04T04:36:28;11.45;;;4.88;;
20421;SDS011;10370;53.102;18.034;2023-06-04T04:41:51;12.80;;;5.32;;
20421;SDS011;10370;53.102;18.034;2023-06-04T04:47:14;11.80;;;5.25;;
20421;SDS011;10370;53.102;18.034;2023-06-04T04:52:37;12.50;;;5.93;;
20421;SDS011;10370;53.102;18.034;2023-06-04T04:58:00;12.43;;;5.97;;
20421;SDS011;10370;53.102;18.034;2023-06-04T05:03:23;14.93;;;6.65;;
20421;SDS011;10370;53.102;18.034;2023-06-04T05:08:45;12.88;;;6.60;;
20421;SDS011;10370;53.102;18.034;2023-06-04T05:14:08;13.05;;;6.28;;
20421;SDS011;10370;53.102;18.034;2023-06-04T05:19:30;11.35;;;5.85;;
20421;SDS011;10370;53.102;18.034;2023-06-04T05:24:54;13.23;;;5.72;;
20421;SDS011;10370;53.102;18.034;2023-06-04T05:30:23;12.82;;;6.57;;
20421;SDS011;10370;53.102;18.034;2023-06-04T05:35:47;8.80;;;4.50;;
20421;SDS011;10370;53.102;18.034;2023-06-04T05:41:16;11.05;;;4.85;;
20421;SDS011;10370;53.102;18.034;2023-06-04T05:46:39;6.97;;;4.00;;
20421;SDS011;10370;53.102;18.034;2023-06-04T05:52:05;9.55;;;3.90;;
20421;SDS011;10370;53.102;18.034;2023-06-04T05:57:29;16.35;;;3.90;;
20421;SDS011;10370;53.102;18.034;2023-06-04T06:02:52;11.10;;;3.60;;
20421;SDS011;10370;53.102;18.034;2023-06-04T06:08:15;11.10;;;3.30;;
20421;SDS011;10370;53.102;18.034;2023-06-04T06:13:38;6.45;;;3.03;;
20421;SDS011;10370;53.102;18.034;2023-06-04T06:19:04;6.32;;;2.63;;
20421;SDS011;10370;53.102;18.034;2023-06-04T06:24:27;7.35;;;2.53;;
20421;SDS011;10370;53.102;18.034;2023-06-04T06:29:49;2.92;;;2.10;;
20421;SDS011;10370;53.102;18.034;2023-06-04T06:35:13;4.20;;;1.70;;
20421;SDS011;10370;53.102;18.034;2023-06-04T06:45:58;2.70;;;1.65;;
20421;SDS011;10370;53.102;18.034;2023-06-04T06:51:22;5.10;;;1.70;;
20421;SDS011;10370;53.102;18.034;2023-06-04T06:56:45;2.40;;;1.40;;
20421;SDS011;10370;53.102;18.034;2023-06-04T07:02:07;3.40;;;1.40;;
20421;SDS011;10370;53.102;18.034;2023-06-04T07:07:30;4.03;;;1.60;;
20421;SDS011;10370;53.102;18.034;2023-06-04T07:12:53;2.33;;;1.40;;
20421;SDS011;10370;53.102;18.034;2023-06-04T07:18:16;6.97;;;1.70;;
20421;SDS011;10370;53.102;18.034;2023-06-04T07:23:38;3.50;;;1.30;;
20421;SDS011;10370;53.102;18.034;2023-06-04T07:29:01;2.33;;;1.30;;
20421;SDS011;10370;53.102;18.034;2023-06-04T07:34:24;3.53;;;1.30;;
20421;SDS011;10370;53.102;18.034;2023-06-04T07:39:47;3.25;;;1.20;;
20421;SDS011;10370;53.102;18.034;2023-06-04T07:45:14;3.47;;;1.30;;
20421;SDS011;10370;53.102;18.034;2023-06-04T07:50:37;2.22;;;1.33;;
20421;SDS011;10370;53.102;18.034;2023-06-04T07:56:02;5.80;;;1.10;;
20421;SDS011;10370;53.102;18.034;2023-06-04T08:01:24;4.13;;;1.30;;
20421;SDS011;10370;53.102;18.034;2023-06-04T08:06:47;2.95;;;1.48;;
20421;SDS011;10370;53.102;18.034;2023-06-04T08:12:13;4.85;;;1.30;;
20421;SDS011;10370;53.102;18.034;2023-06-04T08:17:38;3.15;;;1.25;;
20421;SDS011;10370;53.102;18.034;2023-06-04T08:23:00;4.22;;;1.40;;
20421;SDS011;10370;53.102;18.034;2023-06-04T08:28:23;4.55;;;1.40;;
20421;SDS011;10370;53.102;18.034;2023-06-04T08:33:46;6.18;;;1.42;;
20421;SDS011;10370;53.102;18.034;2023-06-04T08:39:09;3.92;;;1.48;;
20421;SDS011;10370;53.102;18.034;2023-06-04T08:44:32;2.05;;;1.20;;
20421;SDS011;10370;53.102;18.034;2023-06-04T08:49:55;2.22;;;1.13;;
20421;SDS011;10370;53.102;18.034;2023-06-04T08:55:24;4.20;;;1.20;;
20421;SDS011;10370;53.102;18.034;2023-06-04T09:00:48;2.55;;;1.27;;
20421;SDS011;10370;53.102;18.034;2023-06-04T09:06:11;2.97;;;1.20;;
20421;SDS011;10370;53.102;18.034;2023-06-04T09:12:08;3.13;;;1.13;;
20421;SDS011;10370;53.102;18.034;2023-06-04T09:17:24;5.75;;;1.40;;
20421;SDS011;10370;53.102;18.034;2023-06-04T09:22:47;1.75;;;1.10;;
20421;SDS011;10370;53.102;18.034;2023-06-04T09:28:10;2.30;;;1.25;;
20421;SDS011;10370;53.102;18.034;2023-06-04T09:33:41;6.32;;;1.20;;
20421;SDS011;10370;53.102;18.034;2023-06-04T09:39:16;2.50;;;1.20;;
20421;SDS011;10370;53.102;18.034;2023-06-04T09:44:43;5.93;;;1.30;;
20421;SDS011;10370;53.102;18.034;2023-06-04T09:50:11;3.03;;;1.20;;
20421;SDS011;10370;53.102;18.034;2023-06-04T09:55:34;2.60;;;1.45;;
20421;SDS011;10370;53.102;18.034;2023-06-04T10:00:57;2.75;;;1.38;;
20421;SDS011;10370;53.102;18.034;2023-06-04T10:06:22;4.35;;;1.30;;
20421;SDS011;10370;53.102;18.034;2023-06-04T10:11:51;2.80;;;1.23;;
20421;SDS011;10370;53.102;18.034;2023-06-04T10:17:19;1.92;;;1.00;;
20421;SDS011;10370;53.102;18.034;2023-06-04T10:22:45;1.48;;;1.05;;
20421;SDS011;10370;53.102;18.034;2023-06-04T10:28:09;5.10;;;1.30;;
20421;SDS011;10370;53.102;18.034;2023-06-04T10:33:32;3.03;;;1.00;;
20421;SDS011;10370;53.102;18.034;2023-06-04T10:38:55;3.05;;;1.30;;
20421;SDS011;10370;53.102;18.034;2023-06-04T10:44:18;2.42;;;1.42;;
20421;SDS011;10370;53.102;18.034;2023-06-04T10:49:41;3.42;;;1.25;;
20421;SDS011;10370;53.102;18.034;2023-06-04T10:55:04;2.38;;;1.20;;
20421;SDS011;10370;53.102;18.034;2023-06-04T11:00:38;2.60;;;1.30;;
20421;SDS011;10370;53.102;18.034;2023-06-04T11:06:16;5.95;;;1.40;;
20421;SDS011;10370;53.102;18.034;2023-06-04T11:11:39;3.08;;;1.20;;
20421;SDS011;10370;53.102;18.034;2023-06-04T11:17:09;4.05;;;1.25;;
20421;SDS011;10370;53.102;18.034;2023-06-04T11:22:33;4.57;;;1.40;;
20421;SDS011;10370;53.102;18.034;2023-06-04T11:27:56;3.85;;;1.70;;
20421;SDS011;10370;53.102;18.034;2023-06-04T11:33:19;3.67;;;1.25;;
20421;SDS011;10370;53.102;18.034;2023-06-04T11:38:42;3.40;;;1.73;;
20421;SDS011;10370;53.102;18.034;2023-06-04T11:44:19;4.30;;;1.40;;
20421;SDS011;10370;53.102;18.034;2023-06-04T11:49:42;2.00;;;1.30;;
20421;SDS011;10370;53.102;18.034;2023-06-04T11:55:07;5.43;;;1.70;;
20421;SDS011;10370;53.102;18.034;2023-06-04T12:00:34;2.85;;;1.63;;
20421;SDS011;10370;53.102;18.034;2023-06-04T12:05:58;6.75;;;1.48;;
20421;SDS011;10370;53.102;18.034;2023-06-04T12:16:56;7.15;;;1.50;;
20421;SDS011;10370;53.102;18.034;2023-06-04T12:22:19;2.85;;;1.83;;
20421;SDS011;10370;53.102;18.034;2023-06-04T12:27:48;7.38;;;1.65;;
20421;SDS011;10370;53.102;18.034;2023-06-04T12:33:11;2.78;;;1.63;;
20421;SDS011;10370;53.102;18.034;2023-06-04T12:38:34;2.33;;;1.30;;
20421;SDS011;10370;53.102;18.034;2023-06-04T12:43:57;6.78;;;1.60;;
20421;SDS011;10370;53.102;18.034;2023-06-04T12:49:19;2.53;;;1.20;;
20421;SDS011;10370;53.102;18.034;2023-06-04T12:54:42;3.17;;;1.35;;
20421;SDS011;10370;53.102;18.034;2023-06-04T13:00:05;4.85;;;1.45;;
20421;SDS011;10370;53.102;18.034;2023-06-04T13:05:29;3.03;;;1.30;;
20421;SDS011;10370;53.102;18.034;2023-06-04T13:10:52;4.65;;;1.50;;
20421;SDS011;10370;53.102;18.034;2023-06-04T13:16:15;4.30;;;1.70;;
20421;SDS011;10370;53.102;18.034;2023-06-04T13:21:38;7.78;;;1.75;;
20421;SDS011;10370;53.102;18.034;2023-06-04T13:27:01;3.67;;;1.50;;
20421;SDS011;10370;53.102;18.034;2023-06-04T13:32:23;2.13;;;1.30;;
20421;SDS011;10370;53.102;18.034;2023-06-04T13:37:46;5.88;;;1.48;;
20421;SDS011;10370;53.102;18.034;2023-06-04T13:43:09;1.85;;;1.48;;
20421;SDS011;10370;53.102;18.034;2023-06-04T13:48:32;2.92;;;1.20;;
20421;SDS011;10370;53.102;18.034;2023-06-04T13:53:55;2.15;;;1.48;;
20421;SDS011;10370;53.102;18.034;2023-06-04T13:59:18;2.60;;;1.30;;
20421;SDS011;10370;53.102;18.034;2023-06-04T14:04:41;2.38;;;1.33;;
20421;SDS011;10370;53.102;18.034;2023-06-04T14:10:03;1.92;;;1.23;;
20421;SDS011;10370;53.102;18.034;2023-06-04T14:15:26;2.20;;;1.58;;
20421;SDS011;10370;53.102;18.034;2023-06-04T14:20:49;4.03;;;1.30;;
20421;SDS011;10370;53.102;18.034;2023-06-04T14:26:13;3.50;;;1.30;;
20421;SDS011;10370;53.102;18.034;2023-06-04T14:31:36;2.25;;;1.27;;
20421;SDS011;10370;53.102;18.034;2023-06-04T14:36:59;3.90;;;1.30;;
20421;SDS011;10370;53.102;18.034;2023-06-04T14:42:22;3.53;;;1.10;;
20421;SDS011;10370;53.102;18.034;2023-06-04T14:47:45;3.55;;;1.20;;
20421;SDS011;10370;53.102;18.034;2023-06-04T14:53:08;5.13;;;1.48;;
20421;SDS011;10370;53.102;18.034;2023-06-04T14:58:31;3.88;;;1.20;;
20421;SDS011;10370;53.102;18.034;2023-06-04T15:03:54;6.13;;;1.40;;
20421;SDS011;10370;53.102;18.034;2023-06-04T15:09:16;3.35;;;1.45;;
20421;SDS011;10370;53.102;18.034;2023-06-04T15:14:39;2.25;;;1.40;;
20421;SDS011;10370;53.102;18.034;2023-06-04T15:20:04;3.72;;;1.33;;
20421;SDS011;10370;53.102;18.034;2023-06-04T15:25:29;3.78;;;1.35;;
20421;SDS011;10370;53.102;18.034;2023-06-04T15:30:52;5.55;;;1.50;;
20421;SDS011;10370;53.102;18.034;2023-06-04T15:36:14;5.13;;;1.33;;
20421;SDS011;10370;53.102;18.034;2023-06-04T15:41:37;4.07;;;1.35;;
20421;SDS011;10370;53.102;18.034;2023-06-04T15:47:00;5.30;;;1.45;;
20421;SDS011;10370;53.102;18.034;2023-06-04T15:52:22;4.70;;;1.30;;
20421;SDS011;10370;53.102;18.034;2023-06-04T15:57:45;2.63;;;1.77;;
20421;SDS011;10370;53.102;18.034;2023-06-04T16:03:08;2.20;;;1.30;;
20421;SDS011;10370;53.102;18.034;2023-06-04T16:08:30;5.50;;;1.50;;
20421;SDS011;10370;53.102;18.034;2023-06-04T16:13:53;2.45;;;1.50;;
20421;SDS011;10370;53.102;18.034;2023-06-04T16:19:15;3.97;;;1.67;;
20421;SDS011;10370;53.102;18.034;2023-06-04T16:24:38;3.00;;;1.70;;
20421;SDS011;10370;53.102;18.034;2023-06-04T16:30:02;4.07;;;1.58;;
20421;SDS011;10370;53.102;18.034;2023-06-04T16:35:26;3.25;;;1.58;;
20421;SDS011;10370;53.102;18.034;2023-06-04T16:40:49;3.50;;;1.40;;
20421;SDS011;10370;53.102;18.034;2023-06-04T16:46:12;12.20;;;4.05;;
20421;SDS011;10370;53.102;18.034;2023-06-04T16:51:34;5.88;;;1.73;;
20421;SDS011;10370;53.102;18.034;2023-06-04T16:56:58;10.32;;;1.92;;
20421;SDS011;10370;53.102;18.034;2023-06-04T17:02:22;4.68;;;1.50;;
20421;SDS011;10370;53.102;18.034;2023-06-04T17:07:45;2.22;;;1.40;;
20421;SDS011;10370;53.102;18.034;2023-06-04T17:13:07;3.97;;;1.73;;
20421;SDS011;10370;53.102;18.034;2023-06-04T17:18:30;7.72;;;1.42;;
20421;SDS011;10370;53.102;18.034;2023-06-04T17:23:52;2.97;;;1.45;;
20421;SDS011;10370;53.102;18.034;2023-06-04T17:29:15;12.18;;;2.25;;
20421;SDS011;10370;53.102;18.034;2023-06-04T17:34:38;5.32;;;1.60;;
20421;SDS011;10370;53.102;18.034;2023-06-04T17:40:01;10.23;;;1.90;;
20421;SDS011;10370;53.102;18.034;2023-06-04T17:45:25;13.57;;;2.28;;
20421;SDS011;10370;53.102;18.034;2023-06-04T17:50:48;11.73;;;2.33;;
20421;SDS011;10370;53.102;18.034;2023-06-04T17:56:10;9.15;;;1.90;;
20421;SDS011;10370;53.102;18.034;2023-06-04T18:01:33;6.78;;;1.73;;
20421;SDS011;10370;53.102;18.034;2023-06-04T18:06:56;4.38;;;1.90;;
20421;SDS011;10370;53.102;18.034;2023-06-04T18:12:20;13.05;;;4.00;;
20421;SDS011;10370;53.102;18.034;2023-06-04T18:17:43;14.48;;;3.90;;
20421;SDS011;10370;53.102;18.034;2023-06-04T18:23:06;9.75;;;3.40;;
20421;SDS011;10370;53.102;18.034;2023-06-04T18:28:29;20.88;;;6.07;;
20421;SDS011;10370;53.102;18.034;2023-06-04T18:33:53;7.78;;;3.03;;
20421;SDS011;10370;53.102;18.034;2023-06-04T18:39:23;9.18;;;2.47;;
20421;SDS011;10370;53.102;18.034;2023-06-04T18:44:47;16.25;;;3.05;;
20421;SDS011;10370;53.102;18.034;2023-06-04T18:50:10;24.42;;;4.32;;
20421;SDS011;10370;53.102;18.034;2023-06-04T18:55:33;11.52;;;2.90;;
20421;SDS011;10370;53.102;18.034;2023-06-04T19:00:56;17.23;;;3.42;;
20421;SDS011;10370;53.102;18.034;2023-06-04T19:06:19;26.88;;;3.95;;
20421;SDS011;10370;53.102;18.034;2023-06-04T19:11:42;15.50;;;3.17;;
20421;SDS011;10370;53.102;18.034;2023-06-04T19:17:05;24.85;;;4.32;;
20421;SDS011;10370;53.102;18.034;2023-06-04T19:22:29;30.50;;;4.18;;
20421;SDS011;10370;53.102;18.034;2023-06-04T19:27:52;34.30;;;5.72;;
20421;SDS011;10370;53.102;18.034;2023-06-04T19:33:18;30.67;;;4.03;;
20421;SDS011;10370;53.102;18.034;2023-06-04T19:38:42;43.25;;;6.28;;
20421;SDS011;10370;53.102;18.034;2023-06-04T19:44:06;35.13;;;5.55;;
20421;SDS011;10370;53.102;18.034;2023-06-04T19:49:30;41.78;;;5.40;;
20421;SDS011;10370;53.102;18.034;2023-06-04T19:54:53;48.70;;;8.50;;
20421;SDS011;10370;53.102;18.034;2023-06-04T20:00:16;45.08;;;8.65;;
20421;SDS011;10370;53.102;18.034;2023-06-04T20:05:39;54.58;;;8.35;;
20421;SDS011;10370;53.102;18.034;2023-06-04T20:11:02;43.45;;;8.30;;
20421;SDS011;10370;53.102;18.034;2023-06-04T20:16:25;32.58;;;6.95;;
20421;SDS011;10370;53.102;18.034;2023-06-04T20:21:47;49.38;;;9.25;;
20421;SDS011;10370;53.102;18.034;2023-06-04T20:27:10;40.40;;;8.80;;
20421;SDS011;10370;53.102;18.034;2023-06-04T20:32:33;51.45;;;7.60;;
20421;SDS011;10370;53.102;18.034;2023-06-04T20:37:56;42.55;;;8.05;;
20421;SDS011;10370;53.102;18.034;2023-06-04T20:43:19;44.63;;;9.00;;
20421;SDS011;10370;53.102;18.034;2023-06-04T20:48:41;47.17;;;9.07;;
20421;SDS011;10370;53.102;18.034;2023-06-04T20:54:05;43.47;;;8.85;;
20421;SDS011;10370;53.102;18.034;2023-06-04T20:59:28;39.30;;;9.00;;
20421;SDS011;10370;53.102;18.034;2023-06-04T21:04:51;43.38;;;7.20;;
20421;SDS011;10370;53.102;18.034;2023-06-04T21:10:13;17.13;;;5.57;;
20421;SDS011;10370;53.102;18.034;2023-06-04T21:15:36;13.05;;;3.97;;
20421;SDS011;10370;53.102;18.034;2023-06-04T21:20:59;11.63;;;3.80;;
20421;SDS011;10370;53.102;18.034;2023-06-04T21:31:39;9.23;;;3.75;;
20421;SDS011;10370;53.102;18.034;2023-06-04T21:37:02;11.57;;;3.15;;
20421;SDS011;10370;53.102;18.034;2023-06-04T21:42:25;7.27;;;3.20;;
20421;SDS011;10370;53.102;18.034;2023-06-04T21:47:47;10.18;;;3.40;;
20421;SDS011;10370;53.102;18.034;2023-06-04T21:53:10;5.93;;;2.92;;
20421;SDS011;10370;53.102;18.034;2023-06-04T21:58:34;7.20;;;2.70;;
20421;SDS011;10370;53.102;18.034;2023-06-04T22:03:57;9.05;;;3.17;;
20421;SDS011;10370;53.102;18.034;2023-06-04T22:09:20;4.22;;;2.72;;
20421;SDS011;10370;53.102;18.034;2023-06-04T22:14:42;6.15;;;2.88;;
20421;SDS011;10370;53.102;18.034;2023-06-04T22:20:05;6.72;;;2.83;;
20421;SDS011;10370;53.102;18.034;2023-06-04T22:25:28;7.03;;;2.78;;
20421;SDS011;10370;53.102;18.034;2023-06-04T22:30:51;7.20;;;2.90;;
20421;SDS011;10370;53.102;18.034;2023-06-04T22:36:14;4.85;;;2.35;;
20421;SDS011;10370;53.102;18.034;2023-06-04T22:41:36;3.95;;;2.38;;
20421;SDS011;10370;53.102;18.034;2023-06-04T22:46:59;7.28;;;2.20;;
20421;SDS011;10370;53.102;18.034;2023-06-04T22:52:22;4.90;;;2.40;;
20421;SDS011;10370;53.102;18.034;2023-06-04T22:57:45;2.53;;;2.00;;
20421;SDS011;10370;53.102;18.034;2023-06-04T23:03:08;5.85;;;2.20;;
20421;SDS011;10370;53.102;18.034;2023-06-04T23:08:30;5.10;;;2.30;;
20421;SDS011;10370;53.102;18.034;2023-06-04T23:13:53;4.45;;;2.10;;
20421;SDS011;10370;53.102;18.034;2023-06-04T23:19:15;4.22;;;2.17;;
20421;SDS011;10370;53.102;18.034;2023-06-04T23:24:38;5.53;;;2.10;;
20421;SDS011;10370;53.102;18.034;2023-06-04T23:30:01;17.38;;;2.63;;
20421;SDS011;10370;53.102;18.034;2023-06-04T23:35:25;5.60;;;2.50;;
20421;SDS011;10370;53.102;18.034;2023-06-04T23:40:48;4.35;;;2.50;;
20421;SDS011;10370;53.102;18.034;2023-06-04T23:46:10;5.88;;;2.13;;
20421;SDS011;10370;53.102;18.034;2023-06-04T23:51:33;3.83;;;2.20;;
20421;SDS011;10370;53.102;18.034;2023-06-04T23:56:55;5.65;;;2.30;;
